Time;durP1;ratioP1;P1;durP2;ratioP2;P2;SDS_P1;SDS_P2;PMS_P1;PMS_P2;Temp;Humidity;BMP_temperature;BMP_pressure;BME280_temperature;BME280_humidity;BME280_pressure;Samples;Min_cycle;Max_cycle;Signal;HPM_P1;HPM_P2
2023/07/19 00:00:00;;;;;;;5.20;3.00;;;;;;;;;;4952338;28;20194;-67
2023/07/19 00:02:27;;;;;;;6.70;3.17;;;;;;;;;;4950078;29;20205;-67
2023/07/19 00:04:53;;;;;;;4.67;2.87;;;;;;;;;;4950268;29;20198;-67
2023/07/19 00:07:20;;;;;;;5.60;3.23;;;;;;;;;;4950156;29;20300;-67
2023/07/19 00:09:47;;;;;;;4.63;2.93;;;;;;;;;;4949978;29;20194;-67
2023/07/19 00:12:13;;;;;;;4.63;2.80;;;;;;;;;;4949765;29;20285;-67
2023/07/19 00:14:40;;;;;;;5.20;2.43;;;;;;;;;;4949579;29;20256;-67
2023/07/19 00:17:25;;;;;;;4.10;2.70;;;;;;;;;;4935249;29;20253;-67
2023/07/19 00:19:52;;;;;;;3.00;2.30;;;;;;;;;;4933109;29;20194;-67
2023/07/19 00:22:18;;;;;;;5.60;2.97;;;;;;;;;;4950116;29;20191;-67
2023/07/19 00:24:45;;;;;;;6.87;2.97;;;;;;;;;;4932657;29;20220;-67
2023/07/19 00:27:14;;;;;;;4.40;2.50;;;;;;;;;;4949574;29;20222;-67
2023/07/19 00:29:41;;;;;;;6.60;2.77;;;;;;;;;;4932236;29;20198;-67
2023/07/19 00:32:08;;;;;;;7.53;2.57;;;;;;;;;;4932618;29;20206;-67
2023/07/19 00:34:35;;;;;;;6.20;2.63;;;;;;;;;;4932899;28;20198;-67
2023/07/19 00:37:02;;;;;;;3.97;2.33;;;;;;;;;;4952028;29;20194;-67
2023/07/19 00:39:29;;;;;;;5.00;2.50;;;;;;;;;;4935966;29;20297;-67
2023/07/19 00:41:56;;;;;;;5.57;2.30;;;;;;;;;;4935776;29;20209;-67
2023/07/19 00:44:24;;;;;;;9.03;2.77;;;;;;;;;;4952667;29;20198;-67
2023/07/19 00:46:51;;;;;;;8.43;2.50;;;;;;;;;;4936073;29;20221;-67
2023/07/19 00:49:18;;;;;;;3.17;2.30;;;;;;;;;;4936509;29;20197;-67
2023/07/19 00:51:45;;;;;;;4.47;2.60;;;;;;;;;;4935896;29;20225;-67
2023/07/19 01:26:28;;;;;;;6.63;2.70;;;;;;;;;;4971155;28;20224;-67
2023/07/19 01:28:57;;;;;;;5.40;2.70;;;;;;;;;;4971636;28;20665;-66
2023/07/19 01:31:23;;;;;;;6.20;3.40;;;;;;;;;;4954310;28;20197;-66
2023/07/19 01:33:50;;;;;;;5.90;2.80;;;;;;;;;;4971527;28;20212;-66
2023/07/19 01:36:18;;;;;;;7.53;2.67;;;;;;;;;;4954716;28;20198;-66
2023/07/19 01:38:44;;;;;;;6.53;3.10;;;;;;;;;;4971240;28;20589;-66
2023/07/19 01:41:12;;;;;;;4.83;3.20;;;;;;;;;;4971356;28;20221;-67
2023/07/19 01:43:39;;;;;;;7.63;3.07;;;;;;;;;;4971834;28;21045;-66
2023/07/19 01:46:06;;;;;;;5.73;3.60;;;;;;;;;;4953946;28;20209;-66
2023/07/19 01:48:33;;;;;;;5.00;3.17;;;;;;;;;;4954022;28;20197;-66
2023/07/19 01:50:59;;;;;;;5.77;3.27;;;;;;;;;;4971016;28;20252;-66
2023/07/19 01:53:26;;;;;;;4.30;2.77;;;;;;;;;;4971325;28;20193;-67
2023/07/19 01:55:54;;;;;;;8.43;3.00;;;;;;;;;;4971009;28;20173;-67
2023/07/19 01:58:40;;;;;;;5.43;3.00;;;;;;;;;;4934413;29;20292;-67
2023/07/19 02:01:07;;;;;;;4.53;3.40;;;;;;;;;;4934446;29;20237;-67
2023/07/19 02:03:34;;;;;;;4.90;3.20;;;;;;;;;;4951924;29;20198;-67
2023/07/19 02:06:01;;;;;;;4.20;2.90;;;;;;;;;;4951351;29;20290;-67
2023/07/19 02:08:27;;;;;;;6.17;3.27;;;;;;;;;;4951958;29;20195;-67
2023/07/19 02:10:54;;;;;;;5.07;3.37;;;;;;;;;;4934303;29;20200;-67
2023/07/19 02:13:21;;;;;;;7.03;3.53;;;;;;;;;;4951717;29;20198;-67
2023/07/19 02:15:48;;;;;;;4.07;3.40;;;;;;;;;;4951503;29;20214;-67
2023/07/19 02:18:16;;;;;;;5.27;3.30;;;;;;;;;;4951801;29;20202;-67
2023/07/19 02:20:44;;;;;;;4.50;2.90;;;;;;;;;;4950936;29;20190;-67
2023/07/19 02:23:10;;;;;;;5.20;3.00;;;;;;;;;;4951639;29;20237;-67
2023/07/19 02:25:39;;;;;;;6.17;3.13;;;;;;;;;;4951460;29;20198;-67
2023/07/19 02:28:05;;;;;;;3.77;3.10;;;;;;;;;;4933878;29;20293;-67
2023/07/19 02:30:32;;;;;;;4.03;3.30;;;;;;;;;;4951410;29;20594;-67
2023/07/19 02:32:59;;;;;;;6.80;3.00;;;;;;;;;;4951379;29;20190;-67
2023/07/19 02:35:26;;;;;;;4.90;3.37;;;;;;;;;;4951121;29;20194;-67
2023/07/19 02:37:53;;;;;;;5.30;3.60;;;;;;;;;;4934081;29;20257;-67
2023/07/19 02:40:19;;;;;;;5.27;3.57;;;;;;;;;;4951178;28;20234;-67
2023/07/19 02:42:46;;;;;;;5.40;3.23;;;;;;;;;;4933756;29;20202;-67
2023/07/19 02:45:14;;;;;;;5.40;3.03;;;;;;;;;;4933842;29;20241;-67
2023/07/19 02:47:41;;;;;;;3.63;3.00;;;;;;;;;;4950874;29;21182;-67
2023/07/19 02:50:08;;;;;;;5.43;2.93;;;;;;;;;;4951257;29;20234;-66
2023/07/19 02:52:35;;;;;;;3.43;2.57;;;;;;;;;;4951533;29;20189;-66
2023/07/19 02:55:02;;;;;;;5.83;2.67;;;;;;;;;;4950576;29;20283;-67
2023/07/19 02:57:28;;;;;;;3.83;2.70;;;;;;;;;;4933606;28;20724;-66
2023/07/19 02:59:55;;;;;;;5.17;2.83;;;;;;;;;;4966047;28;20676;-66
2023/07/19 03:02:22;;;;;;;6.37;2.93;;;;;;;;;;4969119;28;20256;-66
2023/07/19 03:04:51;;;;;;;7.17;3.47;;;;;;;;;;4969941;28;20197;-66
2023/07/19 03:07:18;;;;;;;4.47;2.77;;;;;;;;;;4951776;28;20217;-66
2023/07/19 03:10:02;;;;;;;4.60;2.90;;;;;;;;;;4969487;28;20573;-67
2023/07/19 03:12:29;;;;;;;3.73;3.00;;;;;;;;;;4952390;28;20200;-67
2023/07/19 03:15:13;;;;;;;6.83;2.87;;;;;;;;;;4952349;28;20537;-68
2023/07/19 03:17:40;;;;;;;6.10;3.00;;;;;;;;;;4968154;28;20194;-66
2023/07/19 03:20:08;;;;;;;5.70;3.00;;;;;;;;;;4954230;28;20293;-67
2023/07/19 03:22:35;;;;;;;4.40;2.93;;;;;;;;;;4946453;29;20195;-66
2023/07/19 03:25:02;;;;;;;4.73;3.10;;;;;;;;;;4960278;28;20204;-67
2023/07/19 03:27:47;;;;;;;4.17;2.60;;;;;;;;;;4952007;28;20204;-66
2023/07/19 03:30:14;;;;;;;7.00;3.10;;;;;;;;;;4967544;28;20193;-66
2023/07/19 03:32:40;;;;;;;4.40;2.50;;;;;;;;;;4949854;28;20225;-67
2023/07/19 03:35:07;;;;;;;3.77;2.67;;;;;;;;;;4936144;28;20674;-67
2023/07/19 03:37:36;;;;;;;4.90;2.70;;;;;;;;;;4952189;28;20205;-67
2023/07/19 03:40:20;;;;;;;6.03;2.73;;;;;;;;;;4948410;29;20233;-66
2023/07/19 03:42:47;;;;;;;3.20;2.37;;;;;;;;;;4962723;28;20193;-66
2023/07/19 03:45:14;;;;;;;5.63;2.80;;;;;;;;;;4969216;28;20206;-66
2023/07/19 03:47:41;;;;;;;6.93;2.70;;;;;;;;;;4951061;28;20605;-67
2023/07/19 03:50:08;;;;;;;4.20;2.23;;;;;;;;;;4969404;28;20624;-66
2023/07/19 03:52:35;;;;;;;4.10;2.40;;;;;;;;;;4949952;28;20201;-66
2023/07/19 03:55:03;;;;;;;8.03;3.37;;;;;;;;;;4947854;29;20194;-66
2023/07/19 03:57:33;;;;;;;3.30;2.30;;;;;;;;;;4963316;28;20242;-67
2023/07/19 04:00:18;;;;;;;6.23;2.33;;;;;;;;;;4948490;29;20177;-66
2023/07/19 04:02:46;;;;;;;3.97;2.27;;;;;;;;;;4967608;28;20197;-66
2023/07/19 04:05:16;;;;;;;3.40;2.23;;;;;;;;;;4949446;28;20244;-65
2023/07/19 04:07:43;;;;;;;3.87;2.17;;;;;;;;;;4933199;28;20307;-66
2023/07/19 04:10:10;;;;;;;3.97;1.97;;;;;;;;;;4949504;28;20338;-66
2023/07/19 04:12:37;;;;;;;5.10;2.00;;;;;;;;;;4941741;29;20555;-66
2023/07/19 04:15:04;;;;;;;3.70;1.90;;;;;;;;;;4934022;29;20564;-65
2023/07/19 04:17:31;;;;;;;2.57;1.70;;;;;;;;;;4962372;28;20201;-66
2023/07/19 04:19:59;;;;;;;3.70;2.10;;;;;;;;;;4953854;28;20193;-65
2023/07/19 04:22:26;;;;;;;3.93;2.00;;;;;;;;;;4970776;28;20720;-65
2023/07/19 04:24:54;;;;;;;6.20;2.50;;;;;;;;;;4953552;28;20228;-65
2023/07/19 04:27:21;;;;;;;4.27;2.10;;;;;;;;;;4952630;28;21133;-67
2023/07/19 04:29:48;;;;;;;4.47;2.30;;;;;;;;;;4953387;28;20207;-66
2023/07/19 04:32:16;;;;;;;4.93;2.60;;;;;;;;;;4953133;28;20197;-66
2023/07/19 04:34:42;;;;;;;6.33;2.43;;;;;;;;;;4970889;28;20190;-66
2023/07/19 04:37:10;;;;;;;4.47;2.10;;;;;;;;;;4953177;28;20204;-66
2023/07/19 04:39:37;;;;;;;4.00;2.27;;;;;;;;;;4970900;28;20233;-67
2023/07/19 04:42:04;;;;;;;5.20;2.40;;;;;;;;;;4952582;28;20205;-66
2023/07/19 04:44:30;;;;;;;3.43;1.87;;;;;;;;;;4953694;28;20272;-66
2023/07/19 04:46:58;;;;;;;2.40;1.90;;;;;;;;;;4970109;28;20233;-66
2023/07/19 04:49:42;;;;;;;6.13;2.20;;;;;;;;;;4970133;28;20176;-65
2023/07/19 04:52:08;;;;;;;5.40;2.13;;;;;;;;;;4952252;28;20188;-65
2023/07/19 04:54:36;;;;;;;5.77;2.03;;;;;;;;;;4952975;28;20209;-66
2023/07/19 04:57:02;;;;;;;4.70;2.10;;;;;;;;;;4968894;28;20194;-66
2023/07/19 04:59:31;;;;;;;3.50;2.33;;;;;;;;;;4970043;28;20264;-66
2023/07/19 05:01:59;;;;;;;5.23;1.83;;;;;;;;;;4969523;28;20193;-66
2023/07/19 05:04:26;;;;;;;3.57;1.83;;;;;;;;;;4952388;28;20728;-66
2023/07/19 05:06:53;;;;;;;3.53;1.60;;;;;;;;;;4970101;28;20676;-66
2023/07/19 05:09:20;;;;;;;3.17;1.90;;;;;;;;;;4952779;28;20210;-66
2023/07/19 05:11:48;;;;;;;7.97;1.87;;;;;;;;;;4952115;28;20215;-65
2023/07/19 05:14:14;;;;;;;4.80;1.93;;;;;;;;;;4950738;28;20233;-66
2023/07/19 05:16:42;;;;;;;2.60;1.80;;;;;;;;;;4969695;28;20308;-67
2023/07/19 05:19:09;;;;;;;3.43;2.03;;;;;;;;;;4969342;28;20204;-67
2023/07/19 05:21:36;;;;;;;2.43;1.60;;;;;;;;;;4951313;28;20636;-61
2023/07/19 05:24:04;;;;;;;4.43;2.10;;;;;;;;;;4951957;28;20205;-70
2023/07/19 05:26:30;;;;;;;6.23;1.90;;;;;;;;;;4951788;28;20213;-64
2023/07/19 05:28:58;;;;;;;5.63;1.70;;;;;;;;;;4969468;28;20197;-63
2023/07/19 05:31:25;;;;;;;4.77;1.93;;;;;;;;;;4969507;28;20186;-65
2023/07/19 05:33:52;;;;;;;3.53;1.80;;;;;;;;;;4969293;28;20189;-64
2023/07/19 05:36:18;;;;;;;3.43;1.60;;;;;;;;;;4969339;28;20589;-61
2023/07/19 05:38:45;;;;;;;4.57;2.40;;;;;;;;;;4969190;28;20569;-63
2023/07/19 05:41:12;;;;;;;4.13;2.03;;;;;;;;;;4968626;28;20276;-63
2023/07/19 05:43:39;;;;;;;5.77;1.60;;;;;;;;;;4965947;28;20197;-72
2023/07/19 05:46:08;;;;;;;4.47;1.80;;;;;;;;;;4969512;28;20193;-71
2023/07/19 05:48:36;;;;;;;1.90;1.63;;;;;;;;;;4966807;28;20284;-70
2023/07/19 05:51:03;;;;;;;5.33;2.17;;;;;;;;;;4969284;28;20198;-68
2023/07/19 05:53:30;;;;;;;5.33;2.13;;;;;;;;;;4968940;28;20198;-69
2023/07/19 05:55:57;;;;;;;2.73;1.87;;;;;;;;;;4969414;28;20198;-69
2023/07/19 05:58:24;;;;;;;4.50;1.97;;;;;;;;;;4968572;28;20197;-68
2023/07/19 06:00:51;;;;;;;2.97;1.60;;;;;;;;;;4969206;28;20236;-69
2023/07/19 06:03:18;;;;;;;3.53;1.83;;;;;;;;;;4968350;28;20569;-69
2023/07/19 06:05:46;;;;;;;4.03;1.70;;;;;;;;;;4968532;28;20211;-68
2023/07/19 06:08:13;;;;;;;3.47;2.00;;;;;;;;;;4952089;28;20296;-69
2023/07/19 06:10:51;;;;;;;4.43;1.97;;;;;;;;;;4953738;28;20656;-69
2023/07/19 06:13:18;;;;;;;4.27;2.07;;;;;;;;;;4952010;28;20272;-70
2023/07/19 06:15:45;;;;;;;3.27;1.90;;;;;;;;;;4968995;28;20200;-70
2023/07/19 06:18:13;;;;;;;3.30;2.03;;;;;;;;;;4968222;28;20684;-68
2023/07/19 06:20:40;;;;;;;3.57;1.80;;;;;;;;;;4952341;28;20260;-70
2023/07/19 06:23:07;;;;;;;3.63;1.77;;;;;;;;;;4968811;28;21037;-67
2023/07/19 06:25:34;;;;;;;4.73;1.70;;;;;;;;;;4968936;28;20198;-68
2023/07/19 06:28:02;;;;;;;4.93;1.50;;;;;;;;;;4968284;28;20316;-68
2023/07/19 06:30:30;;;;;;;3.83;1.77;;;;;;;;;;4968567;28;20177;-69
2023/07/19 06:32:58;;;;;;;3.57;1.57;;;;;;;;;;4967992;28;20189;-68
2023/07/19 06:35:28;;;;;;;2.30;1.50;;;;;;;;;;4968704;28;20280;-69
2023/07/19 06:37:55;;;;;;;3.60;1.70;;;;;;;;;;4968095;28;20197;-70
2023/07/19 06:40:22;;;;;;;4.30;1.90;;;;;;;;;;4951019;28;20942;-69
2023/07/19 06:43:24;;;;;;;3.93;1.70;;;;;;;;;;4968570;28;20910;-70
2023/07/19 06:45:51;;;;;;;5.50;1.90;;;;;;;;;;4968547;28;20193;-69
2023/07/19 06:48:18;;;;;;;5.03;2.00;;;;;;;;;;4967017;28;20576;-70
2023/07/19 06:50:45;;;;;;;4.37;1.80;;;;;;;;;;4968028;28;20382;-69
2023/07/19 06:53:12;;;;;;;3.70;1.63;;;;;;;;;;4947290;29;20190;-68
2023/07/19 06:55:39;;;;;;;4.73;1.80;;;;;;;;;;4949205;29;20202;-69
2023/07/19 06:58:06;;;;;;;3.77;1.80;;;;;;;;;;4962774;28;20192;-69
2023/07/19 07:00:32;;;;;;;3.23;1.60;;;;;;;;;;4950933;28;20185;-70
2023/07/19 07:02:59;;;;;;;2.57;1.33;;;;;;;;;;4969680;28;20229;-70
2023/07/19 07:05:26;;;;;;;5.57;1.50;;;;;;;;;;4970600;28;20272;-70
2023/07/19 07:07:53;;;;;;;2.87;1.73;;;;;;;;;;4969749;28;20229;-70
2023/07/19 07:10:20;;;;;;;2.50;1.40;;;;;;;;;;4968464;28;20934;-70
2023/07/19 07:12:46;;;;;;;3.17;1.70;;;;;;;;;;4967619;28;20273;-69
2023/07/19 07:15:13;;;;;;;2.83;1.77;;;;;;;;;;4950687;28;20292;-69
2023/07/19 07:17:40;;;;;;;3.57;1.43;;;;;;;;;;4963467;28;20268;-69
2023/07/19 07:20:07;;;;;;;2.67;1.40;;;;;;;;;;4965909;28;20292;-68
2023/07/19 07:22:34;;;;;;;3.03;1.37;;;;;;;;;;4967174;28;20719;-70
2023/07/19 07:25:01;;;;;;;5.60;1.90;;;;;;;;;;4950089;28;20224;-68
2023/07/19 07:27:28;;;;;;;3.83;1.50;;;;;;;;;;4966482;28;20782;-68
2023/07/19 07:29:55;;;;;;;3.30;1.50;;;;;;;;;;4950012;28;20679;-68
2023/07/19 07:32:22;;;;;;;4.40;1.40;;;;;;;;;;4949496;28;20277;-69
2023/07/19 07:34:49;;;;;;;2.20;1.47;;;;;;;;;;4967715;28;20196;-69
2023/07/19 07:37:16;;;;;;;4.07;1.80;;;;;;;;;;4967509;28;20185;-69
2023/07/19 07:39:43;;;;;;;3.23;1.30;;;;;;;;;;4966997;28;21101;-68
2023/07/19 07:42:09;;;;;;;4.73;1.70;;;;;;;;;;4967559;28;20296;-68
2023/07/19 07:44:36;;;;;;;3.20;1.60;;;;;;;;;;4966957;28;20200;-68
2023/07/19 07:47:06;;;;;;;5.60;1.60;;;;;;;;;;4967039;28;20177;-68
2023/07/19 07:49:33;;;;;;;4.13;1.53;;;;;;;;;;4967815;28;20272;-69
2023/07/19 07:52:00;;;;;;;4.37;1.60;;;;;;;;;;4967245;28;20236;-70
2023/07/19 07:54:27;;;;;;;7.17;2.17;;;;;;;;;;4966752;28;20185;-70
2023/07/19 07:56:54;;;;;;;4.00;1.70;;;;;;;;;;4966922;28;20201;-70
2023/07/19 07:59:22;;;;;;;4.50;2.00;;;;;;;;;;4949856;28;20193;-72
2023/07/19 08:01:49;;;;;;;3.77;1.60;;;;;;;;;;4950420;28;20596;-71
2023/07/19 08:04:15;;;;;;;5.53;1.70;;;;;;;;;;4950577;28;20200;-71
2023/07/19 08:06:42;;;;;;;2.77;1.60;;;;;;;;;;4966597;28;20193;-69
2023/07/19 08:09:09;;;;;;;3.27;1.50;;;;;;;;;;4950019;28;20743;-70
2023/07/19 08:11:36;;;;;;;2.93;1.47;;;;;;;;;;4966986;28;20248;-70
2023/07/19 08:14:03;;;;;;;6.67;1.70;;;;;;;;;;4967170;28;20260;-69
2023/07/19 08:16:30;;;;;;;3.23;1.70;;;;;;;;;;4967143;28;20217;-70
2023/07/19 08:18:56;;;;;;;3.07;1.40;;;;;;;;;;4950637;28;20197;-70
2023/07/19 08:21:24;;;;;;;3.20;1.50;;;;;;;;;;4964145;28;20351;-70
2023/07/19 08:24:03;;;;;;;5.17;2.00;;;;;;;;;;4949865;28;20588;-70
2023/07/19 08:26:30;;;;;;;4.00;1.43;;;;;;;;;;4949947;28;20186;-69
2023/07/19 08:28:57;;;;;;;2.70;1.70;;;;;;;;;;4966778;28;20220;-69
2023/07/19 08:31:24;;;;;;;3.47;1.60;;;;;;;;;;4966750;28;20217;-70
2023/07/19 08:33:52;;;;;;;3.60;1.60;;;;;;;;;;4968071;28;20232;-69
2023/07/19 08:36:18;;;;;;;4.70;1.97;;;;;;;;;;4943108;28;20305;-70
2023/07/19 08:38:45;;;;;;;4.03;1.67;;;;;;;;;;4947976;29;20217;-70
2023/07/19 08:41:12;;;;;;;4.00;1.50;;;;;;;;;;4949302;29;20762;-70
2023/07/19 08:43:40;;;;;;;5.97;2.20;;;;;;;;;;4935674;29;20194;-70
2023/07/19 08:46:07;;;;;;;3.60;1.57;;;;;;;;;;4948537;29;20315;-70
2023/07/19 08:52:04;;;;;;;3.17;1.67;;;;;;;;;;4949137;29;20232;-70
2023/07/19 08:54:31;;;;;;;3.13;1.53;;;;;;;;;;4948187;29;20191;-70
2023/07/19 08:56:57;;;;;;;5.27;1.90;;;;;;;;;;4950721;28;20186;-70
2023/07/19 08:59:25;;;;;;;3.83;1.80;;;;;;;;;;4964652;28;20228;-71
2023/07/19 09:01:51;;;;;;;4.00;1.53;;;;;;;;;;4972637;28;20196;-70
2023/07/19 09:04:18;;;;;;;3.20;1.60;;;;;;;;;;4955288;28;20720;-70
2023/07/19 09:06:45;;;;;;;5.47;1.77;;;;;;;;;;4954346;28;20232;-70
2023/07/19 09:09:14;;;;;;;3.27;1.70;;;;;;;;;;4955189;28;20217;-70
2023/07/19 09:11:41;;;;;;;4.30;1.87;;;;;;;;;;4954649;28;20200;-70
2023/07/19 09:14:08;;;;;;;3.10;1.80;;;;;;;;;;4971961;28;20201;-69
2023/07/19 09:16:35;;;;;;;4.83;1.67;;;;;;;;;;4972419;28;20341;-70
2023/07/19 09:19:02;;;;;;;2.20;1.80;;;;;;;;;;4971832;28;20666;-70
2023/07/19 09:21:31;;;;;;;3.40;1.63;;;;;;;;;;4971882;28;20225;-70
2023/07/19 09:24:16;;;;;;;4.97;1.77;;;;;;;;;;4971952;28;20174;-70
2023/07/19 09:26:50;;;;;;;4.00;1.83;;;;;;;;;;4953931;28;20225;-69
2023/07/19 09:29:18;;;;;;;4.07;1.60;;;;;;;;;;4971749;28;20569;-69
2023/07/19 09:31:54;;;;;;;3.57;1.40;;;;;;;;;;4938574;28;20900;-69
2023/07/19 09:34:22;;;;;;;2.50;1.53;;;;;;;;;;4972129;28;20193;-69
2023/07/19 09:36:49;;;;;;;4.13;1.60;;;;;;;;;;4971749;28;20712;-69
2023/07/19 09:39:16;;;;;;;3.07;1.50;;;;;;;;;;4971524;28;20189;-69
2023/07/19 09:41:47;;;;;;;4.33;1.80;;;;;;;;;;4971266;28;20182;-69
2023/07/19 09:44:15;;;;;;;4.43;2.00;;;;;;;;;;4971534;28;20193;-69
2023/07/19 09:46:45;;;;;;;3.07;1.43;;;;;;;;;;4971592;28;20249;-69
2023/07/19 09:49:12;;;;;;;3.07;1.77;;;;;;;;;;4971503;28;20224;-69
2023/07/19 09:51:40;;;;;;;5.50;2.43;;;;;;;;;;4954493;28;20221;-69
2023/07/19 09:54:08;;;;;;;3.23;2.30;;;;;;;;;;4954308;28;20208;-69
2023/07/19 09:56:34;;;;;;;3.37;1.93;;;;;;;;;;4954121;28;20193;-69
2023/07/19 09:59:01;;;;;;;5.33;1.63;;;;;;;;;;4970835;28;20252;-68
2023/07/19 10:01:28;;;;;;;3.13;1.67;;;;;;;;;;4971143;28;20328;-68
2023/07/19 10:03:57;;;;;;;6.23;2.07;;;;;;;;;;4971352;28;20729;-69
2023/07/19 10:06:30;;;;;;;4.57;2.20;;;;;;;;;;4953775;28;20787;-68
2023/07/19 10:09:15;;;;;;;3.33;2.00;;;;;;;;;;4970740;28;20290;-68
2023/07/19 10:11:42;;;;;;;4.57;1.87;;;;;;;;;;4970850;28;20201;-68
2023/07/19 10:14:27;;;;;;;3.27;1.60;;;;;;;;;;4971023;28;20176;-68
2023/07/19 10:17:00;;;;;;;4.57;2.00;;;;;;;;;;4954801;28;20229;-68
2023/07/19 10:19:27;;;;;;;3.87;1.67;;;;;;;;;;4971168;28;20180;-68
2023/07/19 10:22:04;;;;;;;2.07;1.60;;;;;;;;;;4971083;28;20248;-68
2023/07/19 10:24:35;;;;;;;3.57;1.87;;;;;;;;;;4954051;28;20196;-68
2023/07/19 10:27:05;;;;;;;3.00;1.80;;;;;;;;;;4970390;28;20189;-69
2023/07/19 15:45:11;;;;;;;1.60;1.07;;;;;;;;;;4950174;29;20218;-69
2023/07/19 15:47:39;;;;;;;1.73;0.90;;;;;;;;;;4950229;29;20205;-69
2023/07/19 15:50:06;;;;;;;1.27;1.13;;;;;;;;;;4932942;29;20214;-69
2023/07/19 15:52:33;;;;;;;3.47;1.60;;;;;;;;;;4947022;29;20195;-69
2023/07/19 15:54:59;;;;;;;2.03;1.10;;;;;;;;;;4922318;29;20198;-69
2023/07/19 15:57:26;;;;;;;1.70;1.00;;;;;;;;;;4949572;29;20197;-69
2023/07/19 15:59:53;;;;;;;2.13;0.93;;;;;;;;;;4949534;29;20198;-69
2023/07/19 16:02:20;;;;;;;2.57;1.00;;;;;;;;;;4949642;29;20213;-69
2023/07/19 16:04:46;;;;;;;2.07;1.00;;;;;;;;;;4930425;29;20195;-69
2023/07/19 16:07:14;;;;;;;3.47;1.07;;;;;;;;;;4953289;28;20297;-69
2023/07/19 16:09:40;;;;;;;2.47;1.20;;;;;;;;;;4953365;29;20224;-69
2023/07/19 16:12:07;;;;;;;1.90;1.00;;;;;;;;;;4953361;29;20202;-69
2023/07/19 16:14:34;;;;;;;3.57;1.40;;;;;;;;;;4953383;29;20245;-69
2023/07/19 16:17:01;;;;;;;4.13;1.20;;;;;;;;;;4953658;29;20194;-69
2023/07/19 16:19:28;;;;;;;4.80;1.43;;;;;;;;;;4953860;29;20194;-69
2023/07/19 16:21:54;;;;;;;2.40;1.13;;;;;;;;;;4953674;29;20281;-69
2023/07/19 16:24:21;;;;;;;2.00;1.07;;;;;;;;;;4953350;29;20230;-69
2023/07/19 16:26:50;;;;;;;2.70;1.00;;;;;;;;;;4953483;29;20190;-69
2023/07/19 16:29:17;;;;;;;2.23;1.07;;;;;;;;;;4953404;29;20693;-69
2023/07/19 16:31:43;;;;;;;2.60;0.90;;;;;;;;;;4953310;29;20301;-68
2023/07/19 16:34:10;;;;;;;3.00;1.00;;;;;;;;;;4953228;29;20202;-68
2023/07/19 16:36:54;;;;;;;1.60;1.00;;;;;;;;;;4952913;29;20193;-67
2023/07/19 16:39:21;;;;;;;5.07;1.40;;;;;;;;;;4952558;29;20213;-67
2023/07/19 16:41:48;;;;;;;2.40;1.20;;;;;;;;;;4952926;29;20565;-67
2023/07/19 16:44:14;;;;;;;3.50;1.23;;;;;;;;;;4966943;28;20237;-68
2023/07/19 16:46:44;;;;;;;2.37;1.17;;;;;;;;;;4972374;28;20225;-68
2023/07/19 16:49:11;;;;;;;1.33;0.87;;;;;;;;;;4971919;28;20217;-68
2023/07/19 16:51:38;;;;;;;1.77;0.90;;;;;;;;;;4972110;28;20200;-67
2023/07/19 16:54:05;;;;;;;1.73;1.00;;;;;;;;;;4972068;28;20649;-67
2023/07/19 16:56:32;;;;;;;1.23;0.80;;;;;;;;;;4971650;28;20251;-67
2023/07/19 16:58:58;;;;;;;3.30;1.20;;;;;;;;;;4972125;28;20657;-67
2023/07/19 17:01:25;;;;;;;2.23;0.90;;;;;;;;;;4971684;28;20622;-67
2023/07/19 17:03:54;;;;;;;4.97;1.60;;;;;;;;;;4972008;28;20185;-68
2023/07/19 17:06:21;;;;;;;2.07;1.50;;;;;;;;;;4971631;28;20193;-68
2023/07/19 17:08:49;;;;;;;2.70;1.20;;;;;;;;;;4971896;28;20209;-68
2023/07/19 17:11:17;;;;;;;2.30;1.40;;;;;;;;;;4971680;28;20540;-67
2023/07/19 17:13:45;;;;;;;2.17;1.10;;;;;;;;;;4951402;29;20202;-68
2023/07/19 17:16:12;;;;;;;2.47;1.30;;;;;;;;;;4958723;28;20235;-68
2023/07/19 17:18:56;;;;;;;1.87;1.30;;;;;;;;;;4960340;28;20213;-67
2023/07/19 17:21:42;;;;;;;2.97;1.60;;;;;;;;;;4969785;28;20200;-68
2023/07/19 17:24:08;;;;;;;1.30;0.90;;;;;;;;;;4970171;28;20244;-68
2023/07/19 17:26:36;;;;;;;2.73;1.50;;;;;;;;;;4969735;28;20534;-69
2023/07/19 17:29:02;;;;;;;1.30;1.00;;;;;;;;;;4969913;28;20245;-69
2023/07/19 17:31:29;;;;;;;2.40;1.07;;;;;;;;;;4958507;28;20969;-68
2023/07/19 17:33:56;;;;;;;1.50;1.00;;;;;;;;;;4970074;28;20654;-67
2023/07/19 17:36:23;;;;;;;1.80;1.20;;;;;;;;;;4969055;28;20241;-67
2023/07/19 17:38:50;;;;;;;1.80;1.20;;;;;;;;;;4970592;28;20198;-68
2023/07/19 17:41:18;;;;;;;2.47;1.60;;;;;;;;;;4969271;28;20236;-69
2023/07/19 17:43:46;;;;;;;3.50;1.50;;;;;;;;;;4970322;28;20236;-69
2023/07/19 17:46:13;;;;;;;5.30;1.83;;;;;;;;;;4933922;28;20198;-68
2023/07/19 17:48:40;;;;;;;2.73;1.20;;;;;;;;;;4952256;28;20209;-69
2023/07/19 17:51:06;;;;;;;1.97;1.03;;;;;;;;;;4952995;28;20652;-69
2023/07/19 17:53:33;;;;;;;4.40;1.43;;;;;;;;;;4969945;28;20695;-68
2023/07/19 17:56:00;;;;;;;2.03;1.30;;;;;;;;;;4952055;28;20205;-68
2023/07/19 18:02:20;;;;;;;2.30;1.57;;;;;;;;;;4966452;28;20263;-70
2023/07/19 18:04:47;;;;;;;2.07;1.30;;;;;;;;;;4970581;28;20548;-67
2023/07/19 18:07:14;;;;;;;2.50;1.30;;;;;;;;;;4969541;28;20196;-67
2023/07/19 18:09:41;;;;;;;2.80;1.43;;;;;;;;;;4969122;28;20225;-67
2023/07/19 18:12:08;;;;;;;2.00;1.27;;;;;;;;;;4968976;28;20268;-67
2023/07/19 18:14:36;;;;;;;3.33;1.40;;;;;;;;;;4936296;28;20201;-67
2023/07/19 18:17:03;;;;;;;2.50;1.30;;;;;;;;;;4968913;28;20193;-67
2023/07/19 18:19:47;;;;;;;2.77;1.23;;;;;;;;;;4955391;28;20209;-67
2023/07/19 18:22:14;;;;;;;6.40;1.20;;;;;;;;;;4968587;28;20193;-67
2023/07/19 18:24:42;;;;;;;3.23;1.30;;;;;;;;;;4969497;28;20973;-67
2023/07/19 18:27:09;;;;;;;1.83;1.10;;;;;;;;;;4951884;28;20197;-68
2023/07/19 18:29:36;;;;;;;2.33;1.20;;;;;;;;;;4969358;28;20217;-67
2023/07/19 18:32:20;;;;;;;4.13;1.33;;;;;;;;;;4968618;28;20182;-67
2023/07/19 18:34:47;;;;;;;1.97;1.10;;;;;;;;;;4969993;28;20185;-68
2023/07/19 18:37:14;;;;;;;2.27;1.40;;;;;;;;;;4969055;28;20561;-68
2023/07/19 18:39:41;;;;;;;2.23;1.30;;;;;;;;;;4969402;28;20879;-68
2023/07/19 18:42:08;;;;;;;3.10;1.20;;;;;;;;;;4951896;28;20668;-67
2023/07/19 18:44:52;;;;;;;4.50;1.10;;;;;;;;;;4969447;28;20708;-67
2023/07/19 18:47:19;;;;;;;1.87;1.50;;;;;;;;;;4968136;28;20193;-67
2023/07/19 18:49:47;;;;;;;2.20;1.30;;;;;;;;;;4969359;28;20217;-66
2023/07/19 18:52:14;;;;;;;4.03;1.40;;;;;;;;;;4969096;28;20200;-67
2023/07/19 18:54:41;;;;;;;4.00;1.50;;;;;;;;;;4968948;28;20243;-67
2023/07/19 18:57:09;;;;;;;3.70;1.37;;;;;;;;;;4968996;28;20533;-67
2023/07/19 18:59:36;;;;;;;3.77;1.87;;;;;;;;;;4968480;28;20293;-67
2023/07/19 19:02:02;;;;;;;4.03;2.00;;;;;;;;;;4968055;28;20240;-67
2023/07/19 19:04:29;;;;;;;4.70;2.10;;;;;;;;;;4969042;28;20615;-68
2023/07/19 19:06:56;;;;;;;5.83;2.93;;;;;;;;;;4968084;28;20273;-67
2023/07/19 19:09:23;;;;;;;6.00;2.50;;;;;;;;;;4967767;28;20313;-67
2023/07/19 19:11:50;;;;;;;5.07;2.50;;;;;;;;;;4968234;28;20201;-67
2023/07/19 19:14:16;;;;;;;7.70;2.83;;;;;;;;;;4968166;28;20218;-67
2023/07/19 19:16:43;;;;;;;4.83;2.60;;;;;;;;;;4967564;28;20255;-66
2023/07/19 19:19:11;;;;;;;4.77;2.60;;;;;;;;;;4955830;28;20225;-68
2023/07/19 19:21:39;;;;;;;4.70;2.70;;;;;;;;;;4950731;28;20202;-66
2023/07/19 19:24:07;;;;;;;4.27;2.63;;;;;;;;;;4968133;28;20204;-67
2023/07/19 19:26:36;;;;;;;8.37;4.30;;;;;;;;;;4962046;28;20193;-67
2023/07/19 19:29:03;;;;;;;6.07;3.37;;;;;;;;;;4954230;28;20213;-66
2023/07/19 19:31:32;;;;;;;10.17;4.33;;;;;;;;;;4950450;28;20549;-66
2023/07/19 19:34:17;;;;;;;9.03;4.90;;;;;;;;;;4923235;28;20173;-68
2023/07/19 19:36:46;;;;;;;8.33;4.57;;;;;;;;;;4949471;28;20691;-68
2023/07/19 19:39:14;;;;;;;6.97;3.87;;;;;;;;;;4967796;28;20197;-68
2023/07/19 19:41:58;;;;;;;5.80;2.80;;;;;;;;;;4951634;28;20205;-67
2023/07/19 19:44:25;;;;;;;7.40;3.07;;;;;;;;;;4949664;28;20283;-67
2023/07/19 19:46:51;;;;;;;4.50;3.00;;;;;;;;;;4968163;28;20185;-68
2023/07/19 19:49:19;;;;;;;5.03;2.67;;;;;;;;;;4950256;28;20219;-70
2023/07/19 19:51:46;;;;;;;4.20;2.47;;;;;;;;;;4967376;28;20186;-67
2023/07/19 19:54:13;;;;;;;6.23;2.87;;;;;;;;;;4950450;28;20204;-67
2023/07/19 19:56:39;;;;;;;3.57;2.43;;;;;;;;;;4966952;28;20217;-68
2023/07/19 19:59:16;;;;;;;6.93;3.73;;;;;;;;;;4967464;28;20283;-67
2023/07/19 20:01:42;;;;;;;8.73;4.90;;;;;;;;;;4967650;28;20207;-66
2023/07/19 20:04:09;;;;;;;8.90;5.00;;;;;;;;;;4968384;28;20197;-66
2023/07/19 20:06:39;;;;;;;9.10;5.13;;;;;;;;;;4969146;28;20199;-66
2023/07/19 20:09:06;;;;;;;7.20;4.23;;;;;;;;;;4968393;28;20194;-67
2023/07/19 20:11:37;;;;;;;10.70;3.90;;;;;;;;;;4968978;28;20216;-67
2023/07/19 20:14:04;;;;;;;8.07;4.10;;;;;;;;;;4968385;28;20202;-67
2023/07/19 20:16:38;;;;;;;7.20;3.70;;;;;;;;;;4969280;28;20198;-67
2023/07/19 20:19:06;;;;;;;5.80;3.73;;;;;;;;;;4968434;28;20284;-66
2023/07/19 20:21:53;;;;;;;4.90;3.30;;;;;;;;;;4968820;28;20197;-67
2023/07/19 20:24:37;;;;;;;6.53;3.00;;;;;;;;;;4954051;28;20313;-67
2023/07/19 20:27:18;;;;;;;5.63;2.83;;;;;;;;;;4968400;28;20738;-67
2023/07/19 20:29:49;;;;;;;5.20;3.10;;;;;;;;;;4968405;28;20264;-67
2023/07/19 20:32:19;;;;;;;7.97;3.33;;;;;;;;;;4968968;28;20194;-67
2023/07/19 20:34:48;;;;;;;6.03;3.60;;;;;;;;;;4968883;28;20248;-67
2023/07/19 20:37:18;;;;;;;7.73;3.80;;;;;;;;;;4968632;28;20190;-67
2023/07/19 20:39:48;;;;;;;5.40;3.13;;;;;;;;;;4968501;28;20201;-67
2023/07/19 20:42:17;;;;;;;4.17;3.23;;;;;;;;;;4968348;28;20194;-67
2023/07/19 20:44:44;;;;;;;5.67;3.00;;;;;;;;;;4967786;28;20232;-67